sensor_id;sensor_type;location;lat;lon;timestamp;temperature;humidity
58993;DHT22;44782;0.000;0.000;2023-02-03T00:00:05;15.20;56.10
58993;DHT22;44782;0.000;0.000;2023-02-03T00:02:21;15.20;56.00
58993;DHT22;44782;0.000;0.000;2023-02-03T00:04:37;15.20;56.10
58993;DHT22;44782;0.000;0.000;2023-02-03T00:06:53;15.20;56.10
58993;DHT22;44782;0.000;0.000;2023-02-03T00:09:09;15.20;56.10
58993;DHT22;44782;0.000;0.000;2023-02-03T00:11:25;15.10;56.00
58993;DHT22;44782;0.000;0.000;2023-02-03T00:13:41;15.10;55.90
58993;DHT22;44782;0.000;0.000;2023-02-03T00:15:57;15.10;55.90
58993;DHT22;44782;0.000;0.000;2023-02-03T00:18:13;15.00;55.80
58993;DHT22;44782;0.000;0.000;2023-02-03T00:20:29;15.00;55.90
58993;DHT22;44782;0.000;0.000;2023-02-03T00:22:45;15.00;56.00
58993;DHT22;44782;0.000;0.000;2023-02-03T00:25:01;14.90;55.90
58993;DHT22;44782;0.000;0.000;2023-02-03T00:27:18;14.90;56.00
58993;DHT22;44782;0.000;0.000;2023-02-03T00:29:33;14.90;56.00
58993;DHT22;44782;0.000;0.000;2023-02-03T00:31:49;14.90;56.00
58993;DHT22;44782;0.000;0.000;2023-02-03T00:34:05;14.80;55.90
58993;DHT22;44782;0.000;0.000;2023-02-03T00:36:22;14.80;56.00
58993;DHT22;44782;0.000;0.000;2023-02-03T00:38:38;14.80;56.00
58993;DHT22;44782;0.000;0.000;2023-02-03T00:40:54;14.80;56.00
58993;DHT22;44782;0.000;0.000;2023-02-03T00:43:10;14.80;56.00
58993;DHT22;44782;0.000;0.000;2023-02-03T00:45:26;14.70;55.90
58993;DHT22;44782;0.000;0.000;2023-02-03T00:47:42;14.70;56.00
58993;DHT22;44782;0.000;0.000;2023-02-03T00:50:00;14.70;55.90
58993;DHT22;44782;0.000;0.000;2023-02-03T00:52:16;14.60;55.90
58993;DHT22;44782;0.000;0.000;2023-02-03T00:54:32;14.70;55.90
58993;DHT22;44782;0.000;0.000;2023-02-03T00:56:48;14.60;55.90
58993;DHT22;44782;0.000;0.000;2023-02-03T00:59:03;14.70;56.00
58993;DHT22;44782;0.000;0.000;2023-02-03T01:01:19;14.60;55.90
58993;DHT22;44782;0.000;0.000;2023-02-03T01:03:35;14.60;55.90
58993;DHT22;44782;0.000;0.000;2023-02-03T01:05:50;14.70;56.00
58993;DHT22;44782;0.000;0.000;2023-02-03T01:08:06;14.60;56.00
58993;DHT22;44782;0.000;0.000;2023-02-03T01:10:22;14.70;56.00
58993;DHT22;44782;0.000;0.000;2023-02-03T01:12:38;14.70;56.00
58993;DHT22;44782;0.000;0.000;2023-02-03T01:14:53;14.60;55.90
58993;DHT22;44782;0.000;0.000;2023-02-03T01:17:09;14.70;56.00
58993;DHT22;44782;0.000;0.000;2023-02-03T01:19:25;14.70;56.00
58993;DHT22;44782;0.000;0.000;2023-02-03T01:21:41;14.70;55.90
58993;DHT22;44782;0.000;0.000;2023-02-03T01:23:57;14.60;55.90
58993;DHT22;44782;0.000;0.000;2023-02-03T01:26:16;14.70;55.90
58993;DHT22;44782;0.000;0.000;2023-02-03T01:28:32;14.60;55.90
58993;DHT22;44782;0.000;0.000;2023-02-03T01:30:48;14.60;55.90
58993;DHT22;44782;0.000;0.000;2023-02-03T01:33:04;14.60;55.90
58993;DHT22;44782;0.000;0.000;2023-02-03T01:35:19;14.70;55.90
58993;DHT22;44782;0.000;0.000;2023-02-03T01:37:35;14.60;55.90
58993;DHT22;44782;0.000;0.000;2023-02-03T01:39:51;14.60;55.90
58993;DHT22;44782;0.000;0.000;2023-02-03T01:42:08;14.60;55.90
58993;DHT22;44782;0.000;0.000;2023-02-03T01:46:54;14.60;55.70
58993;DHT22;44782;0.000;0.000;2023-02-03T01:49:17;14.60;55.90
58993;DHT22;44782;0.000;0.000;2023-02-03T01:51:35;14.60;55.80
58993;DHT22;44782;0.000;0.000;2023-02-03T01:53:53;14.60;55.90
58993;DHT22;44782;0.000;0.000;2023-02-03T01:56:10;14.60;55.80
58993;DHT22;44782;0.000;0.000;2023-02-03T01:58:31;14.60;55.80
58993;DHT22;44782;0.000;0.000;2023-02-03T02:00:48;14.60;55.80
58993;DHT22;44782;0.000;0.000;2023-02-03T02:03:05;14.70;55.90
58993;DHT22;44782;0.000;0.000;2023-02-03T02:06:00;14.70;55.90
58993;DHT22;44782;0.000;0.000;2023-02-03T02:10:30;14.70;55.90
58993;DHT22;44782;0.000;0.000;2023-02-03T02:12:47;14.70;55.90
58993;DHT22;44782;0.000;0.000;2023-02-03T02:15:03;14.80;55.90
58993;DHT22;44782;0.000;0.000;2023-02-03T02:18:02;14.80;55.80
58993;DHT22;44782;0.000;0.000;2023-02-03T02:25:29;15.00;55.70
58993;DHT22;44782;0.000;0.000;2023-02-03T02:30:51;15.10;55.50
58993;DHT22;44782;0.000;0.000;2023-02-03T02:38:33;15.20;55.40
58993;DHT22;44782;0.000;0.000;2023-02-03T02:40:55;15.20;55.30
58993;DHT22;44782;0.000;0.000;2023-02-03T02:43:19;15.30;55.30
58993;DHT22;44782;0.000;0.000;2023-02-03T02:45:46;15.30;55.20
58993;DHT22;44782;0.000;0.000;2023-02-03T02:48:12;15.40;55.10
58993;DHT22;44782;0.000;0.000;2023-02-03T02:50:33;15.40;55.10
58993;DHT22;44782;0.000;0.000;2023-02-03T02:52:50;15.50;55.10
58993;DHT22;44782;0.000;0.000;2023-02-03T02:55:13;15.50;55.00
58993;DHT22;44782;0.000;0.000;2023-02-03T02:57:30;15.60;55.00
58993;DHT22;44782;0.000;0.000;2023-02-03T02:59:46;15.60;54.90
58993;DHT22;44782;0.000;0.000;2023-02-03T03:02:02;15.60;54.90
58993;DHT22;44782;0.000;0.000;2023-02-03T03:04:22;15.60;54.80
58993;DHT22;44782;0.000;0.000;2023-02-03T03:09:06;15.70;54.70
58993;DHT22;44782;0.000;0.000;2023-02-03T03:11:27;15.80;54.50
58993;DHT22;44782;0.000;0.000;2023-02-03T03:13:49;15.80;54.60
58993;DHT22;44782;0.000;0.000;2023-02-03T03:16:07;15.70;54.50
58993;DHT22;44782;0.000;0.000;2023-02-03T03:18:29;15.80;54.50
58993;DHT22;44782;0.000;0.000;2023-02-03T03:20:47;15.80;54.50
58993;DHT22;44782;0.000;0.000;2023-02-03T03:23:06;15.80;54.50
58993;DHT22;44782;0.000;0.000;2023-02-03T03:25:34;15.80;54.40
58993;DHT22;44782;0.000;0.000;2023-02-03T03:27:57;15.80;54.40
58993;DHT22;44782;0.000;0.000;2023-02-03T03:30:17;15.80;54.40
58993;DHT22;44782;0.000;0.000;2023-02-03T03:32:35;15.80;54.40
58993;DHT22;44782;0.000;0.000;2023-02-03T03:34:51;15.80;54.40
58993;DHT22;44782;0.000;0.000;2023-02-03T03:44:55;15.80;54.10
58993;DHT22;44782;0.000;0.000;2023-02-03T03:47:13;15.80;54.40
58993;DHT22;44782;0.000;0.000;2023-02-03T03:49:33;15.80;54.50
58993;DHT22;44782;0.000;0.000;2023-02-03T03:52:03;15.80;54.30
58993;DHT22;44782;0.000;0.000;2023-02-03T03:54:22;15.80;54.10
58993;DHT22;44782;0.000;0.000;2023-02-03T03:56:50;15.80;54.40
58993;DHT22;44782;0.000;0.000;2023-02-03T03:59:08;15.80;54.20
58993;DHT22;44782;0.000;0.000;2023-02-03T04:01:25;15.70;54.40
58993;DHT22;44782;0.000;0.000;2023-02-03T04:03:45;15.80;54.40
58993;DHT22;44782;0.000;0.000;2023-02-03T04:06:02;15.80;54.40
58993;DHT22;44782;0.000;0.000;2023-02-03T04:08:18;15.80;54.40
58993;DHT22;44782;0.000;0.000;2023-02-03T04:10:36;15.70;54.40
58993;DHT22;44782;0.000;0.000;2023-02-03T04:12:52;15.70;54.30
58993;DHT22;44782;0.000;0.000;2023-02-03T04:15:08;15.70;54.30
58993;DHT22;44782;0.000;0.000;2023-02-03T04:17:24;15.70;54.30
58993;DHT22;44782;0.000;0.000;2023-02-03T04:19:39;15.70;54.30
58993;DHT22;44782;0.000;0.000;2023-02-03T04:21:55;15.80;54.40
58993;DHT22;44782;0.000;0.000;2023-02-03T04:24:11;15.80;54.30
58993;DHT22;44782;0.000;0.000;2023-02-03T04:26:27;15.80;54.30
58993;DHT22;44782;0.000;0.000;2023-02-03T04:28:43;15.80;54.30
58993;DHT22;44782;0.000;0.000;2023-02-03T04:30:59;15.90;54.30
58993;DHT22;44782;0.000;0.000;2023-02-03T04:33:15;15.90;54.30
58993;DHT22;44782;0.000;0.000;2023-02-03T04:35:31;15.90;54.20
58993;DHT22;44782;0.000;0.000;2023-02-03T04:37:46;15.90;54.10
58993;DHT22;44782;0.000;0.000;2023-02-03T04:40:02;16.00;54.10
58993;DHT22;44782;0.000;0.000;2023-02-03T04:42:18;16.00;54.10
58993;DHT22;44782;0.000;0.000;2023-02-03T04:44:34;16.00;54.00
58993;DHT22;44782;0.000;0.000;2023-02-03T04:46:49;16.10;54.10
58993;DHT22;44782;0.000;0.000;2023-02-03T04:49:05;16.10;54.10
58993;DHT22;44782;0.000;0.000;2023-02-03T04:51:21;16.10;54.00
58993;DHT22;44782;0.000;0.000;2023-02-03T04:53:36;16.10;54.00
58993;DHT22;44782;0.000;0.000;2023-02-03T04:55:52;16.10;54.00
58993;DHT22;44782;0.000;0.000;2023-02-03T04:58:08;16.20;54.00
58993;DHT22;44782;0.000;0.000;2023-02-03T05:00:24;16.20;54.00
58993;DHT22;44782;0.000;0.000;2023-02-03T05:02:39;16.20;54.00
58993;DHT22;44782;0.000;0.000;2023-02-03T05:04:55;16.20;54.00
58993;DHT22;44782;0.000;0.000;2023-02-03T05:07:10;16.30;54.00
58993;DHT22;44782;0.000;0.000;2023-02-03T05:09:26;16.30;54.00
58993;DHT22;44782;0.000;0.000;2023-02-03T05:11:42;16.30;54.00
58993;DHT22;44782;0.000;0.000;2023-02-03T05:13:58;16.40;54.00
58993;DHT22;44782;0.000;0.000;2023-02-03T05:16:14;16.30;53.90
58993;DHT22;44782;0.000;0.000;2023-02-03T05:18:29;16.40;53.90
58993;DHT22;44782;0.000;0.000;2023-02-03T05:20:45;16.40;53.90
58993;DHT22;44782;0.000;0.000;2023-02-03T05:23:00;16.40;53.90
58993;DHT22;44782;0.000;0.000;2023-02-03T05:25:16;16.40;53.90
58993;DHT22;44782;0.000;0.000;2023-02-03T05:27:32;16.50;53.90
58993;DHT22;44782;0.000;0.000;2023-02-03T05:29:47;16.50;53.90
58993;DHT22;44782;0.000;0.000;2023-02-03T05:32:03;16.50;53.90
58993;DHT22;44782;0.000;0.000;2023-02-03T05:34:19;16.50;53.90
58993;DHT22;44782;0.000;0.000;2023-02-03T05:36:34;16.50;53.90
58993;DHT22;44782;0.000;0.000;2023-02-03T05:38:50;16.60;53.90
58993;DHT22;44782;0.000;0.000;2023-02-03T05:41:06;16.60;53.90
58993;DHT22;44782;0.000;0.000;2023-02-03T05:43:40;16.60;53.80
58993;DHT22;44782;0.000;0.000;2023-02-03T05:46:02;16.60;53.80
58993;DHT22;44782;0.000;0.000;2023-02-03T05:48:18;16.60;53.80
58993;DHT22;44782;0.000;0.000;2023-02-03T05:50:35;16.60;53.80
58993;DHT22;44782;0.000;0.000;2023-02-03T05:52:50;16.60;53.80
58993;DHT22;44782;0.000;0.000;2023-02-03T05:55:06;16.50;53.80
58993;DHT22;44782;0.000;0.000;2023-02-03T05:57:22;16.60;53.80
58993;DHT22;44782;0.000;0.000;2023-02-03T05:59:37;16.60;53.90
58993;DHT22;44782;0.000;0.000;2023-02-03T06:01:53;16.60;53.80
58993;DHT22;44782;0.000;0.000;2023-02-03T06:04:09;16.60;53.90
58993;DHT22;44782;0.000;0.000;2023-02-03T06:06:25;16.50;53.80
58993;DHT22;44782;0.000;0.000;2023-02-03T06:08:47;16.50;53.80
58993;DHT22;44782;0.000;0.000;2023-02-03T06:11:03;16.50;53.90
58993;DHT22;44782;0.000;0.000;2023-02-03T06:13:18;16.40;53.80
58993;DHT22;44782;0.000;0.000;2023-02-03T06:15:34;16.40;53.90
58993;DHT22;44782;0.000;0.000;2023-02-03T06:17:50;16.40;53.90
58993;DHT22;44782;0.000;0.000;2023-02-03T06:20:07;16.40;54.00
58993;DHT22;44782;0.000;0.000;2023-02-03T06:22:23;16.30;53.90
58993;DHT22;44782;0.000;0.000;2023-02-03T06:24:38;16.30;54.00
58993;DHT22;44782;0.000;0.000;2023-02-03T06:26:54;16.30;54.00
58993;DHT22;44782;0.000;0.000;2023-02-03T06:29:09;16.30;54.00
58993;DHT22;44782;0.000;0.000;2023-02-03T06:31:25;16.20;54.00
58993;DHT22;44782;0.000;0.000;2023-02-03T06:33:41;16.30;54.00
58993;DHT22;44782;0.000;0.000;2023-02-03T06:35:57;16.30;54.00
58993;DHT22;44782;0.000;0.000;2023-02-03T06:38:13;16.30;54.00
58993;DHT22;44782;0.000;0.000;2023-02-03T06:40:28;16.30;54.00
58993;DHT22;44782;0.000;0.000;2023-02-03T06:42:45;16.30;53.90
58993;DHT22;44782;0.000;0.000;2023-02-03T06:45:01;16.30;53.90
58993;DHT22;44782;0.000;0.000;2023-02-03T06:47:17;16.30;53.90
58993;DHT22;44782;0.000;0.000;2023-02-03T06:49:33;16.30;53.90
58993;DHT22;44782;0.000;0.000;2023-02-03T06:51:49;16.30;53.90
58993;DHT22;44782;0.000;0.000;2023-02-03T06:54:04;16.30;53.90
58993;DHT22;44782;0.000;0.000;2023-02-03T06:56:20;16.30;53.90
58993;DHT22;44782;0.000;0.000;2023-02-03T06:58:36;16.30;53.80
58993;DHT22;44782;0.000;0.000;2023-02-03T07:00:55;16.30;53.80
58993;DHT22;44782;0.000;0.000;2023-02-03T07:03:10;16.30;53.70
58993;DHT22;44782;0.000;0.000;2023-02-03T07:05:26;16.30;53.70
58993;DHT22;44782;0.000;0.000;2023-02-03T07:07:42;16.40;53.70
58993;DHT22;44782;0.000;0.000;2023-02-03T07:09:57;16.40;53.70
58993;DHT22;44782;0.000;0.000;2023-02-03T07:12:13;16.40;53.70
58993;DHT22;44782;0.000;0.000;2023-02-03T07:14:29;16.40;53.60
58993;DHT22;44782;0.000;0.000;2023-02-03T07:16:45;16.40;53.50
58993;DHT22;44782;0.000;0.000;2023-02-03T07:19:01;16.40;53.60
58993;DHT22;44782;0.000;0.000;2023-02-03T07:21:16;16.50;53.70
58993;DHT22;44782;0.000;0.000;2023-02-03T07:23:33;16.50;53.70
58993;DHT22;44782;0.000;0.000;2023-02-03T07:25:49;16.60;53.70
58993;DHT22;44782;0.000;0.000;2023-02-03T07:28:04;16.60;53.70
58993;DHT22;44782;0.000;0.000;2023-02-03T07:30:20;16.60;53.70
58993;DHT22;44782;0.000;0.000;2023-02-03T07:32:36;16.60;53.60
58993;DHT22;44782;0.000;0.000;2023-02-03T07:34:52;16.60;53.60
58993;DHT22;44782;0.000;0.000;2023-02-03T07:37:07;16.60;53.60
58993;DHT22;44782;0.000;0.000;2023-02-03T07:39:23;16.70;53.50
58993;DHT22;44782;0.000;0.000;2023-02-03T07:41:39;16.60;53.50
58993;DHT22;44782;0.000;0.000;2023-02-03T07:43:54;16.60;54.10
58993;DHT22;44782;0.000;0.000;2023-02-03T07:46:10;16.70;54.20
58993;DHT22;44782;0.000;0.000;2023-02-03T07:48:26;16.70;53.50
58993;DHT22;44782;0.000;0.000;2023-02-03T07:50:41;16.60;53.40
58993;DHT22;44782;0.000;0.000;2023-02-03T07:52:58;16.60;53.40
58993;DHT22;44782;0.000;0.000;2023-02-03T07:55:13;16.60;53.40
58993;DHT22;44782;0.000;0.000;2023-02-03T07:57:29;16.60;53.40
58993;DHT22;44782;0.000;0.000;2023-02-03T07:59:45;16.70;53.50
58993;DHT22;44782;0.000;0.000;2023-02-03T08:02:00;16.70;53.50
58993;DHT22;44782;0.000;0.000;2023-02-03T08:04:16;16.60;53.50
58993;DHT22;44782;0.000;0.000;2023-02-03T08:06:31;16.60;53.60
58993;DHT22;44782;0.000;0.000;2023-02-03T08:11:07;16.60;53.60
58993;DHT22;44782;0.000;0.000;2023-02-03T08:13:22;16.60;53.60
58993;DHT22;44782;0.000;0.000;2023-02-03T08:15:38;16.60;53.70
58993;DHT22;44782;0.000;0.000;2023-02-03T08:17:54;16.60;53.70
58993;DHT22;44782;0.000;0.000;2023-02-03T08:20:10;16.60;53.80
58993;DHT22;44782;0.000;0.000;2023-02-03T08:22:26;16.60;53.80
58993;DHT22;44782;0.000;0.000;2023-02-03T08:24:42;16.60;53.90
58993;DHT22;44782;0.000;0.000;2023-02-03T08:27:00;16.50;53.90
58993;DHT22;44782;0.000;0.000;2023-02-03T08:29:16;16.50;53.90
58993;DHT22;44782;0.000;0.000;2023-02-03T08:31:31;16.50;53.90
58993;DHT22;44782;0.000;0.000;2023-02-03T08:33:47;16.50;54.00
58993;DHT22;44782;0.000;0.000;2023-02-03T08:36:04;16.40;53.90
58993;DHT22;44782;0.000;0.000;2023-02-03T08:38:20;16.50;54.00
58993;DHT22;44782;0.000;0.000;2023-02-03T08:40:36;16.40;53.90
58993;DHT22;44782;0.000;0.000;2023-02-03T08:42:52;16.40;54.00
58993;DHT22;44782;0.000;0.000;2023-02-03T08:45:08;16.40;54.00
58993;DHT22;44782;0.000;0.000;2023-02-03T08:47:24;16.40;54.00
58993;DHT22;44782;0.000;0.000;2023-02-03T08:49:40;16.40;54.10
58993;DHT22;44782;0.000;0.000;2023-02-03T08:51:57;16.40;54.10
58993;DHT22;44782;0.000;0.000;2023-02-03T08:54:13;16.40;54.10
58993;DHT22;44782;0.000;0.000;2023-02-03T08:56:29;16.30;54.10
58993;DHT22;44782;0.000;0.000;2023-02-03T08:58:44;16.40;54.20
58993;DHT22;44782;0.000;0.000;2023-02-03T09:03:23;16.30;54.20
58993;DHT22;44782;0.000;0.000;2023-02-03T09:05:39;16.30;54.20
58993;DHT22;44782;0.000;0.000;2023-02-03T09:07:55;16.30;54.30
58993;DHT22;44782;0.000;0.000;2023-02-03T09:10:11;16.30;54.30
58993;DHT22;44782;0.000;0.000;2023-02-03T09:12:29;16.30;54.40
58993;DHT22;44782;0.000;0.000;2023-02-03T09:14:45;16.20;54.30
58993;DHT22;44782;0.000;0.000;2023-02-03T09:17:01;16.20;54.30
58993;DHT22;44782;0.000;0.000;2023-02-03T09:19:17;16.20;54.30
58993;DHT22;44782;0.000;0.000;2023-02-03T09:21:33;16.20;54.40
58993;DHT22;44782;0.000;0.000;2023-02-03T09:23:49;16.20;54.40
58993;DHT22;44782;0.000;0.000;2023-02-03T09:26:10;16.20;54.40
58993;DHT22;44782;0.000;0.000;2023-02-03T09:28:26;16.10;54.40
58993;DHT22;44782;0.000;0.000;2023-02-03T09:30:42;16.20;54.40
58993;DHT22;44782;0.000;0.000;2023-02-03T09:32:58;16.10;54.40
58993;DHT22;44782;0.000;0.000;2023-02-03T09:35:14;16.10;54.40
58993;DHT22;44782;0.000;0.000;2023-02-03T09:37:30;16.10;54.40
58993;DHT22;44782;0.000;0.000;2023-02-03T09:39:45;16.10;54.50
58993;DHT22;44782;0.000;0.000;2023-02-03T09:42:10;16.10;54.40
58993;DHT22;44782;0.000;0.000;2023-02-03T09:47:27;16.10;54.40
58993;DHT22;44782;0.000;0.000;2023-02-03T09:49:56;16.00;54.50
58993;DHT22;44782;0.000;0.000;2023-02-03T09:52:30;16.10;54.50
58993;DHT22;44782;0.000;0.000;2023-02-03T09:54:53;16.00;54.50
58993;DHT22;44782;0.000;0.000;2023-02-03T09:57:23;16.00;55.00
58993;DHT22;44782;0.000;0.000;2023-02-03T09:59:39;16.00;54.50
58993;DHT22;44782;0.000;0.000;2023-02-03T10:02:06;16.00;54.50
58993;DHT22;44782;0.000;0.000;2023-02-03T10:04:36;16.00;54.40
58993;DHT22;44782;0.000;0.000;2023-02-03T10:07:10;16.00;54.50
58993;DHT22;44782;0.000;0.000;2023-02-03T10:20:10;15.90;54.60
58993;DHT22;44782;0.000;0.000;2023-02-03T10:22:31;15.90;54.50
58993;DHT22;44782;0.000;0.000;2023-02-03T10:24:54;15.90;54.60
58993;DHT22;44782;0.000;0.000;2023-02-03T10:27:19;15.90;54.60
58993;DHT22;44782;0.000;0.000;2023-02-03T10:29:40;15.90;54.60
58993;DHT22;44782;0.000;0.000;2023-02-03T10:31:57;15.90;54.60
58993;DHT22;44782;0.000;0.000;2023-02-03T10:34:16;15.80;54.60
58993;DHT22;44782;0.000;0.000;2023-02-03T10:39:48;15.90;54.60
58993;DHT22;44782;0.000;0.000;2023-02-03T10:42:05;15.80;54.70
58993;DHT22;44782;0.000;0.000;2023-02-03T10:44:26;15.80;54.70
58993;DHT22;44782;0.000;0.000;2023-02-03T10:46:44;15.80;54.70
58993;DHT22;44782;0.000;0.000;2023-02-03T10:49:00;15.80;54.70
58993;DHT22;44782;0.000;0.000;2023-02-03T10:51:27;15.80;54.70
58993;DHT22;44782;0.000;0.000;2023-02-03T10:53:46;15.80;54.60
58993;DHT22;44782;0.000;0.000;2023-02-03T10:56:16;15.80;54.80
58993;DHT22;44782;0.000;0.000;2023-02-03T10:58:36;15.80;54.70
58993;DHT22;44782;0.000;0.000;2023-02-03T11:01:22;15.80;54.80
58993;DHT22;44782;0.000;0.000;2023-02-03T11:04:00;15.80;54.70
58993;DHT22;44782;0.000;0.000;2023-02-03T11:06:16;15.80;54.80
58993;DHT22;44782;0.000;0.000;2023-02-03T11:08:34;15.70;54.80
58993;DHT22;44782;0.000;0.000;2023-02-03T11:11:01;15.70;54.80
58993;DHT22;44782;0.000;0.000;2023-02-03T11:13:19;15.70;54.80
58993;DHT22;44782;0.000;0.000;2023-02-03T11:15:35;15.70;54.80
58993;DHT22;44782;0.000;0.000;2023-02-03T11:17:51;15.70;54.80
58993;DHT22;44782;0.000;0.000;2023-02-03T11:20:16;15.70;54.80
58993;DHT22;44782;0.000;0.000;2023-02-03T11:22:36;15.70;54.80
58993;DHT22;44782;0.000;0.000;2023-02-03T11:24:53;15.70;54.90
58993;DHT22;44782;0.000;0.000;2023-02-03T11:27:13;15.70;54.90
58993;DHT22;44782;0.000;0.000;2023-02-03T11:29:48;15.70;54.90
58993;DHT22;44782;0.000;0.000;2023-02-03T11:32:18;15.70;54.90
58993;DHT22;44782;0.000;0.000;2023-02-03T11:34:37;15.60;54.80
58993;DHT22;44782;0.000;0.000;2023-02-03T11:36:54;15.60;54.90
58993;DHT22;44782;0.000;0.000;2023-02-03T11:39:29;15.60;54.90
58993;DHT22;44782;0.000;0.000;2023-02-03T11:41:51;15.60;54.90
58993;DHT22;44782;0.000;0.000;2023-02-03T11:44:27;15.60;55.00
58993;DHT22;44782;0.000;0.000;2023-02-03T11:46:48;15.60;54.90
58993;DHT22;44782;0.000;0.000;2023-02-03T12:00:30;15.60;55.90
58993;DHT22;44782;0.000;0.000;2023-02-03T12:12:29;15.60;56.50
58993;DHT22;44782;0.000;0.000;2023-02-03T12:14:57;15.60;56.50
58993;DHT22;44782;0.000;0.000;2023-02-03T12:22:13;15.60;56.40
58993;DHT22;44782;0.000;0.000;2023-02-03T12:29:37;15.70;56.40
58993;DHT22;44782;0.000;0.000;2023-02-03T12:34:48;15.80;56.40
58993;DHT22;44782;0.000;0.000;2023-02-03T12:37:20;15.90;56.40
58993;DHT22;44782;0.000;0.000;2023-02-03T12:39:40;15.90;56.30
58993;DHT22;44782;0.000;0.000;2023-02-03T12:42:04;15.90;56.10
58993;DHT22;44782;0.000;0.000;2023-02-03T12:44:28;16.00;56.10
58993;DHT22;44782;0.000;0.000;2023-02-03T12:46:55;16.10;56.00
58993;DHT22;44782;0.000;0.000;2023-02-03T12:51:50;16.10;55.80
58993;DHT22;44782;0.000;0.000;2023-02-03T12:54:35;16.20;55.80
58993;DHT22;44782;0.000;0.000;2023-02-03T12:56:53;16.30;55.80
58993;DHT22;44782;0.000;0.000;2023-02-03T12:59:18;16.30;55.70
58993;DHT22;44782;0.000;0.000;2023-02-03T13:01:52;16.40;55.60
58993;DHT22;44782;0.000;0.000;2023-02-03T13:05:22;16.40;55.50
58993;DHT22;44782;0.000;0.000;2023-02-03T13:10:47;16.50;55.60
58993;DHT22;44782;0.000;0.000;2023-02-03T13:13:05;16.50;55.50
58993;DHT22;44782;0.000;0.000;2023-02-03T13:15:30;16.50;55.40
58993;DHT22;44782;0.000;0.000;2023-02-03T13:22:31;16.60;55.20
58993;DHT22;44782;0.000;0.000;2023-02-03T13:25:08;16.60;55.30
58993;DHT22;44782;0.000;0.000;2023-02-03T13:27:45;16.70;55.20
58993;DHT22;44782;0.000;0.000;2023-02-03T13:38:12;16.70;55.10
58993;DHT22;44782;0.000;0.000;2023-02-03T13:40:56;16.80;55.00
58993;DHT22;44782;0.000;0.000;2023-02-03T13:43:33;16.80;54.90
58993;DHT22;44782;0.000;0.000;2023-02-03T13:45:51;16.80;54.90
58993;DHT22;44782;0.000;0.000;2023-02-03T13:48:19;16.80;55.00
58993;DHT22;44782;0.000;0.000;2023-02-03T13:50:37;16.90;54.90
58993;DHT22;44782;0.000;0.000;2023-02-03T13:55:41;16.90;54.90
58993;DHT22;44782;0.000;0.000;2023-02-03T13:57:57;16.90;54.70
58993;DHT22;44782;0.000;0.000;2023-02-03T14:02:57;16.90;54.70
58993;DHT22;44782;0.000;0.000;2023-02-03T14:05:43;16.90;54.90
58993;DHT22;44782;0.000;0.000;2023-02-03T14:10:40;16.90;54.80
58993;DHT22;44782;0.000;0.000;2023-02-03T14:12:57;16.90;54.90
58993;DHT22;44782;0.000;0.000;2023-02-03T14:22:42;16.90;54.90
58993;DHT22;44782;0.000;0.000;2023-02-03T14:25:04;16.80;54.90
58993;DHT22;44782;0.000;0.000;2023-02-03T14:27:23;16.90;55.00
58993;DHT22;44782;0.000;0.000;2023-02-03T14:29:40;16.80;55.00
58993;DHT22;44782;0.000;0.000;2023-02-03T14:32:07;16.80;55.00
58993;DHT22;44782;0.000;0.000;2023-02-03T14:34:47;16.80;55.00
58993;DHT22;44782;0.000;0.000;2023-02-03T14:37:27;16.80;55.00
58993;DHT22;44782;0.000;0.000;2023-02-03T14:47:49;16.70;55.10
58993;DHT22;44782;0.000;0.000;2023-02-03T14:53:03;16.70;55.10
58993;DHT22;44782;0.000;0.000;2023-02-03T14:55:27;16.70;55.00
58993;DHT22;44782;0.000;0.000;2023-02-03T14:57:50;16.70;55.20
58993;DHT22;44782;0.000;0.000;2023-02-03T15:00:29;16.70;55.20
58993;DHT22;44782;0.000;0.000;2023-02-03T15:07:46;16.60;55.20
58993;DHT22;44782;0.000;0.000;2023-02-03T15:10:12;16.60;55.20
58993;DHT22;44782;0.000;0.000;2023-02-03T15:12:34;16.60;55.20
58993;DHT22;44782;0.000;0.000;2023-02-03T15:14:52;16.60;55.20
58993;DHT22;44782;0.000;0.000;2023-02-03T15:17:22;16.50;55.20
58993;DHT22;44782;0.000;0.000;2023-02-03T15:19:41;16.60;55.20
58993;DHT22;44782;0.000;0.000;2023-02-03T15:21:56;16.50;55.30
58993;DHT22;44782;0.000;0.000;2023-02-03T15:24:15;16.60;55.30
58993;DHT22;44782;0.000;0.000;2023-02-03T15:26:33;16.60;55.30
58993;DHT22;44782;0.000;0.000;2023-02-03T15:29:01;16.60;55.30
58993;DHT22;44782;0.000;0.000;2023-02-03T15:31:31;16.60;55.30
58993;DHT22;44782;0.000;0.000;2023-02-03T15:33:49;16.60;55.30
58993;DHT22;44782;0.000;0.000;2023-02-03T15:36:20;16.60;55.40
58993;DHT22;44782;0.000;0.000;2023-02-03T15:38:45;16.50;55.30
58993;DHT22;44782;0.000;0.000;2023-02-03T15:41:06;16.60;55.50
58993;DHT22;44782;0.000;0.000;2023-02-03T15:46:19;16.60;55.50
58993;DHT22;44782;0.000;0.000;2023-02-03T15:48:51;16.60;55.50
58993;DHT22;44782;0.000;0.000;2023-02-03T15:51:30;16.60;55.50
58993;DHT22;44782;0.000;0.000;2023-02-03T15:53:54;16.70;55.50
58993;DHT22;44782;0.000;0.000;2023-02-03T15:56:22;16.70;55.40
58993;DHT22;44782;0.000;0.000;2023-02-03T15:58:44;16.70;55.40
58993;DHT22;44782;0.000;0.000;2023-02-03T16:01:04;16.70;55.30
58993;DHT22;44782;0.000;0.000;2023-02-03T16:03:36;16.80;55.40
58993;DHT22;44782;0.000;0.000;2023-02-03T16:05:53;16.80;55.30
58993;DHT22;44782;0.000;0.000;2023-02-03T16:08:26;16.80;55.30
58993;DHT22;44782;0.000;0.000;2023-02-03T16:10:45;16.80;55.10
58993;DHT22;44782;0.000;0.000;2023-02-03T16:13:22;16.80;55.20
58993;DHT22;44782;0.000;0.000;2023-02-03T16:15:38;16.80;55.10
58993;DHT22;44782;0.000;0.000;2023-02-03T16:17:55;16.80;55.20
58993;DHT22;44782;0.000;0.000;2023-02-03T16:20:24;16.90;55.10
58993;DHT22;44782;0.000;0.000;2023-02-03T16:22:45;16.90;55.10
58993;DHT22;44782;0.000;0.000;2023-02-03T16:25:21;16.90;55.10
58993;DHT22;44782;0.000;0.000;2023-02-03T16:27:37;16.90;55.00
58993;DHT22;44782;0.000;0.000;2023-02-03T16:32:39;16.90;55.00
58993;DHT22;44782;0.000;0.000;2023-02-03T16:35:14;16.80;55.00
58993;DHT22;44782;0.000;0.000;2023-02-03T16:37:48;16.90;55.10
58993;DHT22;44782;0.000;0.000;2023-02-03T16:40:22;16.90;55.10
58993;DHT22;44782;0.000;0.000;2023-02-03T16:42:57;16.80;55.00
58993;DHT22;44782;0.000;0.000;2023-02-03T16:45:31;16.80;55.10
58993;DHT22;44782;0.000;0.000;2023-02-03T16:48:05;16.90;55.10
58993;DHT22;44782;0.000;0.000;2023-02-03T16:50:40;16.90;55.10
58993;DHT22;44782;0.000;0.000;2023-02-03T16:53:20;16.80;55.00
58993;DHT22;44782;0.000;0.000;2023-02-03T16:55:36;16.90;55.00
58993;DHT22;44782;0.000;0.000;2023-02-03T16:57:52;16.80;55.00
58993;DHT22;44782;0.000;0.000;2023-02-03T17:00:10;16.80;55.00
58993;DHT22;44782;0.000;0.000;2023-02-03T17:02:27;16.80;55.10
58993;DHT22;44782;0.000;0.000;2023-02-03T17:04:43;16.80;55.00
58993;DHT22;44782;0.000;0.000;2023-02-03T17:06:58;16.80;55.00
58993;DHT22;44782;0.000;0.000;2023-02-03T17:09:14;16.80;55.10
58993;DHT22;44782;0.000;0.000;2023-02-03T17:11:30;16.80;55.10
58993;DHT22;44782;0.000;0.000;2023-02-03T17:13:46;16.80;55.10
58993;DHT22;44782;0.000;0.000;2023-02-03T17:16:07;16.80;55.10